Time;durP1;ratioP1;P1;durP2;ratioP2;P2;SDS_P1;SDS_P2;PMS_P1;PMS_P2;Temp;Humidity;BMP_temperature;BMP_pressure;BME280_temperature;BME280_humidity;BME280_pressure;Samples;Min_cycle;Max_cycle;Signal;HPM_P1;HPM_P2
2022/04/09 00:00:58;;;;;;;2.17;1.12;;;19.50;44.20;;;;;;1881533;76;21675;-51
2022/04/09 00:03:25;;;;;;;1.65;1.30;;;19.50;44.10;;;;;;1881985;76;21399;-54
2022/04/09 00:05:52;;;;;;;2.37;1.20;;;19.60;44.30;;;;;;1881710;76;21059;-53
2022/04/09 00:08:20;;;;;;;1.47;0.98;;;19.50;44.30;;;;;;1881654;76;21109;-49
2022/04/09 00:10:47;;;;;;;4.75;1.10;;;19.50;44.30;;;;;;1881882;76;21347;-48
2022/04/09 00:13:14;;;;;;;2.35;1.12;;;19.60;44.40;;;;;;1903327;75;21425;-52
2022/04/09 00:15:41;;;;;;;2.22;1.42;;;19.60;44.70;;;;;;1914192;74;21181;-51
2022/04/09 00:18:09;;;;;;;1.10;1.00;;;19.50;44.80;;;;;;1914161;75;21102;-53
2022/04/09 00:20:36;;;;;;;2.27;1.05;;;19.50;44.70;;;;;;1913694;75;21160;-51
2022/04/09 00:23:04;;;;;;;1.65;0.90;;;19.50;44.70;;;;;;1913936;75;21130;-49
2022/04/09 00:25:31;;;;;;;1.87;1.17;;;19.50;44.70;;;;;;1914489;75;21164;-54
2022/04/09 00:27:59;;;;;;;1.10;1.00;;;19.50;44.60;;;;;;1913599;75;21511;-56
2022/04/09 00:30:26;;;;;;;1.27;0.93;;;19.50;44.70;;;;;;1913240;75;21199;-53
2022/04/09 00:32:54;;;;;;;1.47;0.82;;;19.50;44.90;;;;;;1913286;75;21158;-50
2022/04/09 00:35:21;;;;;;;1.00;0.90;;;19.50;44.80;;;;;;1913836;75;21648;-50
2022/04/09 00:37:48;;;;;;;1.07;0.90;;;19.50;44.80;;;;;;1913548;75;21055;-52
2022/04/09 00:40:19;;;;;;;1.55;0.95;;;19.50;44.70;;;;;;1913592;75;21629;-53
2022/04/09 00:42:47;;;;;;;1.37;0.95;;;19.50;44.80;;;;;;1913809;75;21111;-53
2022/04/09 00:45:14;;;;;;;3.42;0.90;;;19.50;44.80;;;;;;1913223;75;21028;-53
2022/04/09 00:47:42;;;;;;;1.25;0.90;;;19.50;44.70;;;;;;1913603;75;21566;-48
2022/04/09 00:50:10;;;;;;;1.70;1.15;;;19.50;44.70;;;;;;1913495;75;21106;-52
2022/04/09 00:52:46;;;;;;;0.93;0.75;;;19.50;44.60;;;;;;1913375;75;21663;-49
2022/04/09 00:55:14;;;;;;;1.72;1.00;;;19.50;44.60;;;;;;1909078;75;21707;-54
2022/04/09 00:57:42;;;;;;;3.02;0.80;;;19.50;44.50;;;;;;1913723;75;21385;-50
2022/04/09 01:00:10;;;;;;;1.37;0.90;;;19.50;44.60;;;;;;1913289;75;21106;-50
2022/04/09 01:02:43;;;;;;;2.10;0.90;;;19.50;44.50;;;;;;1913208;75;21632;-50
2022/04/09 01:05:11;;;;;;;1.02;0.93;;;19.50;44.50;;;;;;1913171;75;21609;-50
2022/04/09 01:07:38;;;;;;;4.90;1.10;;;19.50;44.30;;;;;;1913059;75;21185;-54
2022/04/09 01:10:06;;;;;;;1.17;1.00;;;19.50;44.40;;;;;;1913422;75;21456;-51
2022/04/09 01:12:35;;;;;;;1.80;0.80;;;19.50;44.40;;;;;;1913537;75;21071;-54
2022/04/09 01:15:06;;;;;;;2.80;0.78;;;19.50;44.40;;;;;;1913696;75;21091;-53
2022/04/09 01:17:37;;;;;;;0.72;0.72;;;19.50;44.40;;;;;;1922166;74;21705;-53
2022/04/09 01:20:21;;;;;;;1.02;0.80;;;19.50;44.40;;;;;;1890938;74;21129;-52
2022/04/09 01:22:49;;;;;;;1.47;0.80;;;19.50;44.40;;;;;;1922940;74;21084;-52
2022/04/09 01:25:16;;;;;;;1.60;0.80;;;19.50;44.40;;;;;;1923210;74;21050;-50
2022/04/09 01:27:43;;;;;;;1.37;0.80;;;19.50;44.50;;;;;;1923212;74;21538;-53
2022/04/09 01:30:11;;;;;;;1.72;0.90;;;19.50;44.40;;;;;;1922931;74;21111;-50
2022/04/09 01:32:39;;;;;;;0.90;0.70;;;19.40;44.40;;;;;;1922915;74;21093;-53
2022/04/09 01:35:07;;;;;;;1.15;0.80;;;19.50;44.50;;;;;;1922894;74;22198;-52
2022/04/09 01:37:34;;;;;;;1.42;0.90;;;19.40;44.40;;;;;;1923251;74;21137;-56
2022/04/09 01:40:01;;;;;;;3.65;0.82;;;19.50;44.40;;;;;;1923071;74;21023;-51
2022/04/09 01:42:29;;;;;;;1.00;0.90;;;19.40;44.40;;;;;;1922957;74;21090;-51
2022/04/09 01:44:56;;;;;;;0.80;0.80;;;19.40;44.50;;;;;;1922923;74;21055;-51
2022/04/09 01:47:24;;;;;;;1.67;0.90;;;19.50;44.50;;;;;;1922886;74;21853;-53
2022/04/09 01:49:51;;;;;;;1.47;0.90;;;19.50;44.50;;;;;;1923112;74;21113;-51
2022/04/09 01:52:18;;;;;;;1.25;0.93;;;19.40;44.50;;;;;;1923081;74;21168;-52
2022/04/09 01:54:46;;;;;;;0.70;0.70;;;19.40;44.50;;;;;;1923111;74;21102;-52
2022/04/09 01:57:15;;;;;;;1.02;0.70;;;19.50;44.40;;;;;;1922977;74;21043;-48
2022/04/09 01:59:44;;;;;;;0.80;0.80;;;19.50;44.50;;;;;;1923011;74;21131;-52
2022/04/09 02:02:11;;;;;;;1.45;1.00;;;19.40;44.50;;;;;;1923382;74;21133;-56
2022/04/09 02:04:38;;;;;;;0.65;0.65;;;19.40;44.70;;;;;;1923090;74;21102;-54
2022/04/09 02:07:06;;;;;;;0.78;0.78;;;19.40;44.50;;;;;;1922816;74;21136;-51
2022/04/09 02:09:33;;;;;;;2.87;0.70;;;19.40;44.60;;;;;;1922970;74;21520;-54
2022/04/09 02:12:01;;;;;;;0.80;0.80;;;19.40;44.50;;;;;;1923135;74;21082;-52
2022/04/09 02:14:28;;;;;;;3.15;0.65;;;19.40;44.70;;;;;;1923363;74;21038;-54
2022/04/09 02:16:55;;;;;;;2.33;0.88;;;19.50;44.80;;;;;;1916977;74;21204;-53
2022/04/09 02:19:22;;;;;;;0.85;0.70;;;19.40;44.80;;;;;;1908432;75;21188;-53
2022/04/09 02:21:50;;;;;;;1.35;0.95;;;19.40;44.60;;;;;;1908425;75;21356;-52
2022/04/09 02:24:17;;;;;;;1.65;1.25;;;19.40;45.00;;;;;;1908371;75;21102;-52
2022/04/09 02:26:44;;;;;;;0.95;0.65;;;19.40;45.00;;;;;;1907980;75;21106;-50
2022/04/09 02:29:12;;;;;;;0.70;0.70;;;19.40;44.80;;;;;;1908483;75;21175;-52
2022/04/09 02:31:40;;;;;;;0.90;0.80;;;19.40;44.80;;;;;;1908938;75;21532;-51
2022/04/09 02:34:08;;;;;;;1.00;0.85;;;19.40;44.70;;;;;;1908680;75;21133;-50
2022/04/09 02:36:36;;;;;;;0.75;0.75;;;19.40;44.60;;;;;;1908429;75;21591;-50
2022/04/09 02:39:04;;;;;;;0.85;0.80;;;19.40;44.50;;;;;;1908509;75;21097;-50
2022/04/09 02:41:32;;;;;;;1.22;0.70;;;19.40;44.50;;;;;;1908754;75;21078;-47
2022/04/09 02:43:59;;;;;;;0.70;0.70;;;19.40;44.40;;;;;;1908847;75;21055;-50
2022/04/09 02:46:26;;;;;;;1.72;0.90;;;19.40;44.50;;;;;;1908536;75;21095;-50
2022/04/09 02:48:54;;;;;;;0.90;0.68;;;19.40;44.40;;;;;;1908715;75;21094;-55
2022/04/09 02:51:21;;;;;;;0.75;0.65;;;19.40;44.50;;;;;;1908501;75;21196;-52
2022/04/09 02:53:48;;;;;;;0.68;0.68;;;19.40;44.40;;;;;;1908551;75;21110;-48
2022/04/09 02:56:16;;;;;;;0.70;0.70;;;19.40;44.40;;;;;;1908469;75;21046;-53
2022/04/09 02:58:43;;;;;;;1.17;0.90;;;19.40;44.30;;;;;;1908361;75;21117;-52
2022/04/09 03:01:11;;;;;;;0.78;0.70;;;19.40;44.30;;;;;;1908714;75;21133;-49
2022/04/09 03:03:38;;;;;;;0.70;0.68;;;19.40;44.50;;;;;;1908506;75;21176;-51
2022/04/09 03:06:05;;;;;;;0.62;0.62;;;19.40;44.40;;;;;;1908146;75;21792;-50
2022/04/09 03:08:33;;;;;;;3.58;0.80;;;19.40;44.40;;;;;;1907892;75;21149;-52
2022/04/09 03:11:00;;;;;;;0.93;0.80;;;19.40;44.40;;;;;;1908041;75;22014;-48
2022/04/09 03:13:27;;;;;;;1.60;0.78;;;19.30;44.30;;;;;;1908024;75;21171;-50
2022/04/09 03:15:55;;;;;;;2.25;0.90;;;19.40;44.40;;;;;;1908548;75;21609;-48
2022/04/09 03:18:22;;;;;;;2.10;0.90;;;19.40;44.90;;;;;;1894373;75;21121;-48
2022/04/09 03:20:49;;;;;;;2.27;0.70;;;19.40;44.30;;;;;;1879255;74;21520;-56
2022/04/09 03:23:17;;;;;;;1.60;0.80;;;19.30;44.30;;;;;;1875678;76;21093;-50
2022/04/09 03:25:44;;;;;;;6.17;0.72;;;19.30;44.30;;;;;;1875762;75;21522;-49
2022/04/09 03:28:11;;;;;;;1.15;0.90;;;19.30;44.20;;;;;;1875592;76;21213;-50
2022/04/09 03:30:39;;;;;;;1.55;1.00;;;19.40;44.20;;;;;;1875707;76;21107;-51
2022/04/09 03:33:06;;;;;;;1.05;0.95;;;19.40;44.20;;;;;;1875438;76;22318;-51
2022/04/09 03:35:33;;;;;;;0.50;0.50;;;19.40;44.20;;;;;;1875251;76;21115;-51
2022/04/09 03:38:02;;;;;;;1.82;1.00;;;19.30;44.20;;;;;;1875393;76;21695;-48
2022/04/09 03:40:29;;;;;;;1.07;0.98;;;19.40;44.30;;;;;;1875572;76;21604;-48
2022/04/09 03:42:56;;;;;;;0.80;0.80;;;19.30;44.20;;;;;;1895298;75;21105;-50
2022/04/09 03:45:24;;;;;;;0.70;0.70;;;19.30;44.20;;;;;;1896280;75;21110;-53
2022/04/09 03:47:51;;;;;;;1.62;0.90;;;19.30;44.20;;;;;;1896292;75;21203;-50
2022/04/09 03:50:19;;;;;;;1.37;0.90;;;19.40;44.30;;;;;;1896207;75;21137;-49
2022/04/09 03:52:46;;;;;;;1.30;0.72;;;19.30;43.90;;;;;;1896095;75;21795;-50
2022/04/09 03:55:13;;;;;;;2.75;0.78;;;19.30;44.10;;;;;;1896125;75;21147;-48
2022/04/09 03:57:41;;;;;;;1.25;0.90;;;19.30;44.20;;;;;;1896422;75;22266;-49
2022/04/09 04:00:09;;;;;;;1.95;1.10;;;19.30;44.20;;;;;;1896079;75;21656;-53
2022/04/09 04:02:37;;;;;;;0.80;0.80;;;19.30;44.10;;;;;;1895910;75;21109;-51
2022/04/09 04:05:05;;;;;;;1.62;0.90;;;19.30;44.00;;;;;;1896104;75;21031;-53
2022/04/09 04:07:33;;;;;;;2.08;1.10;;;19.30;44.10;;;;;;1896064;75;21113;-51
2022/04/09 04:10:05;;;;;;;1.92;1.12;;;19.30;44.10;;;;;;1896518;75;21175;-48
2022/04/09 04:12:32;;;;;;;2.30;0.88;;;19.30;44.30;;;;;;1895818;75;21109;-52
2022/04/09 04:15:00;;;;;;;1.02;0.85;;;19.30;44.10;;;;;;1896160;75;21116;-46
2022/04/09 04:17:27;;;;;;;1.32;0.90;;;19.40;44.10;;;;;;1896015;75;21163;-52
2022/04/09 04:19:54;;;;;;;1.10;1.00;;;19.30;44.00;;;;;;1895989;75;21094;-50
2022/04/09 04:22:22;;;;;;;2.45;1.25;;;19.30;44.00;;;;;;1896605;75;21042;-50
2022/04/09 04:24:49;;;;;;;1.22;1.12;;;19.30;44.00;;;;;;1896579;75;21109;-48
2022/04/09 04:27:16;;;;;;;1.37;1.27;;;19.30;43.80;;;;;;1896194;75;21075;-49
2022/04/09 04:29:44;;;;;;;1.12;1.02;;;19.30;43.90;;;;;;1896204;75;21093;-49
2022/04/09 04:32:11;;;;;;;1.52;1.22;;;19.30;44.00;;;;;;1896429;74;21031;-52
2022/04/09 04:34:38;;;;;;;1.15;0.90;;;19.30;43.80;;;;;;1896664;74;21109;-49
2022/04/09 04:37:06;;;;;;;1.75;1.10;;;19.30;43.90;;;;;;1896363;74;21581;-49
2022/04/09 04:39:33;;;;;;;1.22;1.10;;;19.30;43.90;;;;;;1915836;74;21094;-51
2022/04/09 04:42:00;;;;;;;1.40;1.30;;;19.30;44.00;;;;;;1896200;75;21065;-53
2022/04/09 04:44:28;;;;;;;1.35;1.02;;;19.30;44.10;;;;;;1896224;75;21077;-51
2022/04/09 04:46:55;;;;;;;2.20;1.20;;;19.30;44.00;;;;;;1896526;75;21427;-52
2022/04/09 04:49:22;;;;;;;1.62;1.20;;;19.30;44.10;;;;;;1896581;75;21097;-50
2022/04/09 04:51:49;;;;;;;2.27;1.37;;;19.30;44.10;;;;;;1896464;75;21116;-53
2022/04/09 04:54:17;;;;;;;1.60;1.40;;;19.30;44.00;;;;;;1896470;75;21120;-52
2022/04/09 04:56:44;;;;;;;1.50;1.17;;;19.30;44.10;;;;;;1896436;75;21109;-55
2022/04/09 04:59:12;;;;;;;2.47;1.10;;;19.30;44.10;;;;;;1896512;75;21027;-48
2022/04/09 05:01:40;;;;;;;2.00;1.30;;;19.30;44.10;;;;;;1898182;74;21198;-51
2022/04/09 05:04:09;;;;;;;1.67;1.40;;;19.30;44.00;;;;;;1896558;75;21097;-52
2022/04/09 05:06:37;;;;;;;3.15;1.65;;;19.30;43.90;;;;;;1928433;74;21562;-52
2022/04/09 05:09:04;;;;;;;2.37;1.20;;;19.30;43.90;;;;;;1929201;74;21145;-51
2022/04/09 05:11:31;;;;;;;1.55;1.17;;;19.30;43.90;;;;;;1896974;74;21112;-52
2022/04/09 05:13:59;;;;;;;2.10;1.57;;;19.30;44.10;;;;;;1896538;75;21206;-50
2022/04/09 05:16:26;;;;;;;4.20;1.37;;;19.30;43.90;;;;;;1896332;75;21195;-50
2022/04/09 05:18:53;;;;;;;2.33;1.40;;;19.30;44.00;;;;;;1884539;75;21090;-50
2022/04/09 05:21:21;;;;;;;1.37;1.25;;;19.30;43.90;;;;;;1875699;76;21084;-51
2022/04/09 05:23:48;;;;;;;2.35;1.62;;;19.30;44.10;;;;;;1875667;76;21125;-55
2022/04/09 05:26:15;;;;;;;1.55;1.15;;;19.30;44.10;;;;;;1875862;76;21094;-46
2022/04/09 05:28:42;;;;;;;2.62;1.80;;;19.30;44.10;;;;;;1875793;76;21097;-51
2022/04/09 05:31:13;;;;;;;1.90;1.47;;;19.30;44.20;;;;;;1875546;76;21113;-52
2022/04/09 05:33:40;;;;;;;1.60;1.30;;;19.30;44.60;;;;;;1876098;76;21211;-51
2022/04/09 05:36:08;;;;;;;3.10;1.20;;;19.30;43.90;;;;;;1875650;76;21180;-52
2022/04/09 05:38:35;;;;;;;1.72;1.25;;;19.30;44.00;;;;;;1875622;76;21195;-51
2022/04/09 05:41:02;;;;;;;2.20;1.30;;;19.30;44.00;;;;;;1904363;75;21212;-49
2022/04/09 05:43:30;;;;;;;3.00;1.70;;;19.30;44.10;;;;;;1906162;75;21176;-53
2022/04/09 05:45:57;;;;;;;5.12;1.55;;;19.30;44.00;;;;;;1908142;75;21138;-52
2022/04/09 05:48:24;;;;;;;2.80;1.60;;;19.30;44.30;;;;;;1908357;75;21130;-47
2022/04/09 05:50:52;;;;;;;3.90;2.08;;;19.30;44.30;;;;;;1908252;75;21204;-50
2022/04/09 05:53:19;;;;;;;3.12;1.85;;;19.30;44.00;;;;;;1908140;75;21176;-49
2022/04/09 05:55:46;;;;;;;2.37;1.77;;;19.20;43.90;;;;;;1907791;75;21094;-49
2022/04/09 05:58:14;;;;;;;2.58;2.20;;;19.20;43.70;;;;;;1908419;75;21651;-49
2022/04/09 06:00:41;;;;;;;2.67;1.67;;;19.10;43.60;;;;;;1908463;75;21066;-49
2022/04/09 06:03:10;;;;;;;2.83;2.15;;;19.10;43.50;;;;;;1907139;75;21105;-52
2022/04/09 06:05:37;;;;;;;2.55;2.02;;;19.10;43.40;;;;;;1907290;75;21169;-49
2022/04/09 06:08:05;;;;;;;2.65;2.20;;;19.10;43.30;;;;;;1907041;75;21563;-47
2022/04/09 06:10:32;;;;;;;5.55;2.35;;;19.10;43.30;;;;;;1907607;75;21682;-53
2022/04/09 06:12:59;;;;;;;2.37;2.00;;;19.10;43.20;;;;;;1907937;75;21121;-52
2022/04/09 06:15:27;;;;;;;2.37;1.90;;;19.00;43.00;;;;;;1908215;75;21632;-54
2022/04/09 06:17:54;;;;;;;3.10;1.92;;;19.10;43.00;;;;;;1908387;75;21126;-53
2022/04/09 06:20:21;;;;;;;6.08;2.55;;;19.10;43.00;;;;;;1905492;75;21141;-52
2022/04/09 06:22:49;;;;;;;4.62;2.30;;;19.10;42.90;;;;;;1905461;75;21117;-50
2022/04/09 06:25:16;;;;;;;2.65;1.80;;;19.10;42.70;;;;;;1905198;75;21163;-50
2022/04/09 06:27:43;;;;;;;4.67;2.17;;;19.00;42.60;;;;;;1904912;75;21114;-50
2022/04/09 06:30:13;;;;;;;3.75;2.22;;;19.10;42.60;;;;;;1905061;75;21047;-51
2022/04/09 06:32:41;;;;;;;2.75;2.02;;;19.00;42.50;;;;;;1905190;75;21114;-51
2022/04/09 06:35:08;;;;;;;4.33;2.22;;;19.10;42.50;;;;;;1905331;75;21196;-52
2022/04/09 06:37:39;;;;;;;8.03;2.58;;;19.00;42.40;;;;;;1905330;75;21572;-54
2022/04/09 06:40:09;;;;;;;7.53;2.83;;;19.10;42.50;;;;;;1905185;75;21176;-53
2022/04/09 06:42:42;;;;;;;3.67;2.65;;;19.00;42.40;;;;;;1905225;75;21193;-53
2022/04/09 06:45:10;;;;;;;4.80;2.70;;;19.00;42.20;;;;;;1904809;75;21145;-52
2022/04/09 06:47:38;;;;;;;3.80;2.30;;;19.00;42.30;;;;;;1904775;75;21032;-50
2022/04/09 06:50:10;;;;;;;3.47;2.10;;;19.00;42.30;;;;;;1904893;75;21123;-52
2022/04/09 06:52:38;;;;;;;3.77;2.62;;;19.10;42.30;;;;;;1905330;75;21058;-48
2022/04/09 06:55:06;;;;;;;7.83;3.20;;;19.00;42.20;;;;;;1905230;75;21102;-52
2022/04/09 06:57:33;;;;;;;8.65;3.00;;;19.00;42.10;;;;;;1905135;75;21113;-52
2022/04/09 07:00:01;;;;;;;6.53;3.95;;;19.10;42.10;;;;;;1905240;75;21103;-51
2022/04/09 07:02:28;;;;;;;7.25;4.15;;;19.10;42.00;;;;;;1905303;75;21091;-56
2022/04/09 07:04:55;;;;;;;7.58;4.50;;;19.10;42.10;;;;;;1905362;75;21563;-50
2022/04/09 07:07:23;;;;;;;5.83;3.65;;;19.00;42.00;;;;;;1904870;75;21067;-50
2022/04/09 07:09:51;;;;;;;7.05;3.85;;;19.00;42.00;;;;;;1904989;75;21083;-54
2022/04/09 07:12:18;;;;;;;6.70;4.15;;;19.00;41.90;;;;;;1904989;75;21105;-50
2022/04/09 07:14:45;;;;;;;5.62;3.70;;;19.00;42.00;;;;;;1905132;75;21529;-51
2022/04/09 07:17:13;;;;;;;5.87;3.62;;;19.00;41.90;;;;;;1905333;75;21172;-53
2022/04/09 07:19:42;;;;;;;5.50;3.75;;;19.10;42.00;;;;;;1905242;75;21107;-55
2022/04/09 07:22:09;;;;;;;4.90;3.22;;;19.10;41.90;;;;;;1904897;75;21136;-51
2022/04/09 07:24:36;;;;;;;5.85;3.75;;;19.10;42.00;;;;;;1896088;74;21122;-54
2022/04/09 07:27:04;;;;;;;7.37;4.17;;;19.10;41.80;;;;;;1889623;76;21145;-52
2022/04/09 07:29:31;;;;;;;6.03;3.37;;;19.10;41.80;;;;;;1890232;76;21524;-53
2022/04/09 07:31:59;;;;;;;6.72;3.22;;;19.10;41.70;;;;;;1890002;76;21472;-55
2022/04/09 07:34:26;;;;;;;6.78;3.90;;;19.10;41.70;;;;;;1890318;76;21588;-49
2022/04/09 07:36:53;;;;;;;5.72;3.50;;;19.10;41.70;;;;;;1889835;76;21083;-51
2022/04/09 07:39:21;;;;;;;7.03;3.80;;;19.10;41.50;;;;;;1890122;76;22213;-51
2022/04/09 07:41:48;;;;;;;5.70;3.00;;;19.20;41.70;;;;;;1890306;76;21208;-50
2022/04/09 07:44:15;;;;;;;7.03;2.77;;;19.20;41.30;;;;;;1890379;76;21123;-55
2022/04/09 07:46:43;;;;;;;7.00;3.92;;;19.30;41.10;;;;;;1890545;76;21169;-56
2022/04/09 07:49:10;;;;;;;6.83;2.92;;;19.40;41.00;;;;;;1890544;76;21137;-55
2022/04/09 07:51:37;;;;;;;5.42;3.02;;;19.40;41.10;;;;;;1890339;74;21397;-53
2022/04/09 07:54:05;;;;;;;4.05;2.80;;;19.40;41.00;;;;;;1890295;76;21070;-50
2022/04/09 07:56:32;;;;;;;4.60;2.47;;;19.30;41.20;;;;;;1889888;76;21078;-53
2022/04/09 07:58:59;;;;;;;6.40;3.50;;;19.30;41.20;;;;;;1889824;75;21172;-51
2022/04/09 08:01:27;;;;;;;5.05;2.90;;;19.30;41.20;;;;;;1890372;76;21103;-46
2022/04/09 08:03:56;;;;;;;9.33;3.50;;;19.50;41.00;;;;;;1890504;75;21122;-54
2022/04/09 08:06:23;;;;;;;8.23;2.90;;;19.50;41.20;;;;;;1890057;75;21602;-54
2022/04/09 08:08:51;;;;;;;4.45;2.90;;;19.50;41.40;;;;;;1890040;76;21101;-52
2022/04/09 08:11:19;;;;;;;9.35;3.42;;;19.50;41.10;;;;;;1890104;76;21527;-52
2022/04/09 08:13:46;;;;;;;6.95;2.55;;;19.50;41.00;;;;;;1890208;76;21102;-50
2022/04/09 08:16:14;;;;;;;9.30;3.60;;;19.50;40.90;;;;;;1890004;76;21604;-53
2022/04/09 08:18:41;;;;;;;5.65;2.95;;;19.60;40.90;;;;;;1893082;74;21103;-50
2022/04/09 08:21:08;;;;;;;9.98;2.95;;;19.60;40.80;;;;;;1881759;76;21632;-53
2022/04/09 08:23:35;;;;;;;8.00;2.58;;;19.60;40.80;;;;;;1888406;75;21074;-54
2022/04/09 08:26:03;;;;;;;13.38;3.20;;;19.70;40.80;;;;;;1882685;75;21756;-52
2022/04/09 08:28:36;;;;;;;5.55;3.02;;;19.70;40.80;;;;;;1880432;76;21118;-49
2022/04/09 08:31:02;;;;;;;8.85;2.85;;;19.60;40.70;;;;;;1880579;76;21101;-53
2022/04/09 08:33:29;;;;;;;10.70;3.20;;;19.60;40.70;;;;;;1880947;75;21095;-50
2022/04/09 08:35:57;;;;;;;5.53;3.17;;;19.50;40.70;;;;;;1889438;75;21554;-52
2022/04/09 08:38:26;;;;;;;8.83;3.40;;;19.50;40.70;;;;;;1880000;76;21157;-53
2022/04/09 08:40:53;;;;;;;5.12;3.00;;;19.60;40.80;;;;;;1879365;76;21145;-51
2022/04/09 08:43:20;;;;;;;6.17;3.37;;;19.50;40.70;;;;;;1880313;76;21709;-50
2022/04/09 08:45:48;;;;;;;12.10;3.20;;;19.50;40.70;;;;;;1879745;76;21183;-53
2022/04/09 08:48:15;;;;;;;8.00;3.47;;;19.50;40.80;;;;;;1845652;76;21964;-52
2022/04/09 08:50:43;;;;;;;6.12;2.75;;;19.50;40.80;;;;;;1880388;76;21112;-50
2022/04/09 08:53:11;;;;;;;4.83;2.50;;;19.50;40.80;;;;;;1880508;76;21143;-51
2022/04/09 08:55:40;;;;;;;6.25;2.87;;;19.50;40.90;;;;;;1880520;76;21172;-50
2022/04/09 08:58:07;;;;;;;6.42;3.27;;;19.50;41.00;;;;;;1879756;75;21117;-52
2022/04/09 09:00:34;;;;;;;4.92;2.40;;;19.50;40.90;;;;;;1879724;76;21105;-51
2022/04/09 09:03:02;;;;;;;6.62;3.02;;;19.40;41.00;;;;;;1880118;76;21212;-53
2022/04/09 09:05:39;;;;;;;5.85;2.85;;;19.40;40.80;;;;;;1880232;76;21130;-50
2022/04/09 09:08:08;;;;;;;3.35;2.65;;;19.40;41.50;;;;;;1879226;76;21183;-49
2022/04/09 09:10:36;;;;;;;5.35;2.75;;;19.40;40.80;;;;;;1880705;76;21062;-50
2022/04/09 09:13:05;;;;;;;6.78;3.22;;;19.50;40.90;;;;;;1882257;75;21067;-50
2022/04/09 09:15:46;;;;;;;7.00;2.83;;;19.50;40.90;;;;;;1873964;76;21433;-55
2022/04/09 09:18:24;;;;;;;6.35;3.10;;;19.40;40.80;;;;;;1873761;76;21063;-52
2022/04/09 09:20:52;;;;;;;8.03;3.37;;;19.50;40.80;;;;;;1872617;76;21130;-52
2022/04/09 09:23:24;;;;;;;6.35;3.30;;;19.50;40.70;;;;;;1871761;76;21183;-51
2022/04/09 09:25:52;;;;;;;10.43;3.02;;;19.40;40.70;;;;;;1872152;76;21164;-54
2022/04/09 09:28:26;;;;;;;5.20;2.83;;;19.40;40.70;;;;;;1873144;76;21075;-52
2022/04/09 09:30:54;;;;;;;5.33;2.83;;;19.50;40.80;;;;;;1874839;76;21562;-56
2022/04/09 09:33:21;;;;;;;10.40;3.22;;;19.40;40.80;;;;;;1874865;76;21047;-50
2022/04/09 09:35:50;;;;;;;7.65;3.02;;;19.40;41.00;;;;;;1874525;76;21212;-49
2022/04/09 09:38:28;;;;;;;5.53;2.83;;;19.40;40.80;;;;;;1874388;76;21114;-50
2022/04/09 09:40:56;;;;;;;7.30;2.70;;;19.40;40.90;;;;;;1873771;75;21656;-50
2022/04/09 09:43:25;;;;;;;6.25;2.72;;;19.50;40.70;;;;;;1875344;76;21075;-55
2022/04/09 09:45:53;;;;;;;5.55;2.75;;;19.50;40.70;;;;;;1875477;76;21613;-51
2022/04/09 09:48:28;;;;;;;6.28;2.47;;;19.40;40.40;;;;;;1874423;76;21134;-51
2022/04/09 09:50:57;;;;;;;6.22;2.72;;;19.50;40.50;;;;;;1874564;76;21572;-51
2022/04/09 09:53:32;;;;;;;8.05;2.75;;;19.50;40.50;;;;;;1873600;75;21138;-52
2022/04/09 09:56:01;;;;;;;5.92;2.58;;;19.50;40.70;;;;;;1874312;76;21098;-51
2022/04/09 09:58:30;;;;;;;8.83;3.27;;;19.50;40.60;;;;;;1875038;76;21111;-51
2022/04/09 10:00:57;;;;;;;10.13;3.72;;;19.50;40.60;;;;;;1874100;76;21394;-48
2022/04/09 10:03:27;;;;;;;11.28;3.75;;;19.50;40.60;;;;;;1875387;76;21083;-56
2022/04/09 10:05:54;;;;;;;8.13;3.80;;;19.50;40.60;;;;;;1876990;75;21073;-53
2022/04/09 10:08:21;;;;;;;7.80;3.90;;;19.50;40.40;;;;;;1876909;75;21114;-54
2022/04/09 10:10:50;;;;;;;7.80;3.60;;;19.60;40.40;;;;;;1878378;75;21063;-50
2022/04/09 10:13:24;;;;;;;10.10;3.58;;;19.60;40.60;;;;;;1874469;76;21150;-52
2022/04/09 10:15:52;;;;;;;10.82;3.20;;;19.70;40.40;;;;;;1875347;76;21106;-51
2022/04/09 10:18:23;;;;;;;5.30;2.52;;;19.70;40.30;;;;;;1876058;76;21421;-50
2022/04/09 10:20:53;;;;;;;6.85;2.90;;;19.80;40.10;;;;;;1874413;75;21682;-50
2022/04/09 10:23:22;;;;;;;5.20;2.60;;;19.80;40.10;;;;;;1873594;76;21102;-58
2022/04/09 10:25:53;;;;;;;6.70;3.15;;;19.70;40.20;;;;;;1874334;76;21574;-54
2022/04/09 10:28:31;;;;;;;5.25;3.00;;;19.70;40.00;;;;;;1874414;76;21161;-50
2022/04/09 10:30:59;;;;;;;10.25;3.00;;;19.70;40.10;;;;;;1875125;76;21027;-56
2022/04/09 10:33:30;;;;;;;10.78;3.25;;;19.70;40.00;;;;;;1903166;75;21117;-51
2022/04/09 10:36:03;;;;;;;;;;;19.70;40.00;;;;;;1883248;75;21239;-51
2022/04/09 10:38:31;;;;;;;22.58;7.47;;;19.60;39.90;;;;;;1880640;75;20209;-49
2022/04/09 10:41:13;;;;;;;17.25;5.37;;;19.50;38.30;;;;;;1881970;75;21035;-51
2022/04/09 10:43:42;;;;;;;10.15;3.75;;;19.30;38.60;;;;;;1861214;76;21175;-49
2022/04/09 10:46:17;;;;;;;11.53;3.22;;;19.30;39.40;;;;;;1877178;76;21110;-47
2022/04/09 10:48:44;;;;;;;6.72;2.90;;;19.40;39.50;;;;;;1877448;75;21097;-48
2022/04/09 10:51:16;;;;;;;12.40;3.67;;;19.50;39.40;;;;;;1877180;76;21664;-47
2022/04/09 10:53:50;;;;;;;7.03;2.98;;;19.60;39.30;;;;;;1877098;76;21082;-50
2022/04/09 10:56:29;;;;;;;9.55;2.55;;;19.70;39.30;;;;;;1877362;76;21548;-52
2022/04/09 10:59:16;;;;;;;10.32;3.08;;;19.70;39.00;;;;;;1877426;76;21082;-48
2022/04/09 11:01:50;;;;;;;9.00;3.80;;;19.70;39.00;;;;;;1856310;75;21494;-47
2022/04/09 11:04:34;;;;;;;8.45;2.85;;;19.80;39.10;;;;;;1861095;77;21655;-51
2022/04/09 11:07:06;;;;;;;12.68;3.52;;;19.70;39.60;;;;;;1860785;76;21604;-52
2022/04/09 11:09:42;;;;;;;6.28;2.25;;;19.70;39.20;;;;;;1868496;76;21086;-56
2022/04/09 11:12:09;;;;;;;4.17;2.37;;;19.70;39.30;;;;;;1879698;76;21110;-57
2022/04/09 11:14:50;;;;;;;9.55;3.12;;;19.70;39.40;;;;;;1881630;76;21788;-54
2022/04/09 11:17:34;;;;;;;15.68;3.50;;;19.70;39.30;;;;;;1881281;76;21579;-50
2022/04/09 11:20:18;;;;;;;5.85;2.70;;;19.70;39.50;;;;;;1881204;76;21070;-52
2022/04/09 11:22:48;;;;;;;5.50;2.40;;;19.70;39.50;;;;;;1880984;76;21153;-51
2022/04/09 11:25:21;;;;;;;6.28;3.00;;;19.70;39.60;;;;;;1881252;76;21184;-52
2022/04/09 11:27:49;;;;;;;5.60;2.55;;;19.70;39.70;;;;;;1881430;76;21152;-50
2022/04/09 11:30:17;;;;;;;5.30;2.50;;;19.70;39.80;;;;;;1881412;76;21587;-52
2022/04/09 11:32:46;;;;;;;4.97;2.77;;;19.70;39.70;;;;;;1881334;76;21055;-53
2022/04/09 11:35:13;;;;;;;6.53;2.60;;;19.70;39.90;;;;;;1875118;75;21151;-49
2022/04/09 11:37:45;;;;;;;11.48;2.22;;;19.70;39.80;;;;;;1882038;75;21094;-50
2022/04/09 11:40:13;;;;;;;6.15;2.45;;;19.70;40.10;;;;;;1882298;75;21121;-51
2022/04/09 11:42:51;;;;;;;4.37;2.40;;;19.70;40.00;;;;;;1877695;75;21083;-55
2022/04/09 11:45:23;;;;;;;6.90;2.42;;;19.70;40.10;;;;;;1877523;75;21103;-50
2022/04/09 11:47:52;;;;;;;7.65;3.12;;;19.80;39.90;;;;;;1877708;76;21126;-52
2022/04/09 11:50:19;;;;;;;6.47;2.20;;;19.90;39.60;;;;;;1877662;76;21169;-51
2022/04/09 11:52:47;;;;;;;14.68;2.95;;;19.90;39.70;;;;;;1877699;76;21115;-47
2022/04/09 11:55:15;;;;;;;5.30;2.37;;;19.90;39.90;;;;;;1878757;75;21106;-52
2022/04/09 11:57:50;;;;;;;22.00;2.98;;;20.00;40.70;;;;;;1877025;76;21130;-51
2022/04/09 12:00:18;;;;;;;10.20;2.33;;;20.00;40.10;;;;;;1877307;76;21179;-48
2022/04/09 12:02:45;;;;;;;10.13;3.27;;;20.00;40.20;;;;;;1877553;76;21094;-50
2022/04/09 12:05:13;;;;;;;10.18;2.90;;;20.10;40.30;;;;;;1877180;76;21094;-53
2022/04/09 12:07:45;;;;;;;11.25;2.77;;;20.10;40.10;;;;;;1877571;76;21083;-47
2022/04/09 12:10:26;;;;;;;12.23;2.27;;;20.10;40.20;;;;;;1877618;76;21693;-51
2022/04/09 12:12:59;;;;;;;11.57;2.55;;;20.20;40.00;;;;;;1878894;76;21118;-50
2022/04/09 12:15:33;;;;;;;13.80;2.70;;;20.20;40.10;;;;;;1881700;76;21079;-52
2022/04/09 12:18:04;;;;;;;10.43;2.40;;;20.20;40.10;;;;;;1881815;76;21125;-48
2022/04/09 12:20:39;;;;;;;15.18;2.52;;;20.20;40.10;;;;;;1881580;76;21102;-49
2022/04/09 12:23:08;;;;;;;12.18;2.52;;;20.20;40.20;;;;;;1881012;76;21684;-50
2022/04/09 12:25:39;;;;;;;11.25;2.35;;;20.20;40.10;;;;;;1881342;76;21117;-48
2022/04/09 12:28:22;;;;;;;6.65;2.10;;;20.20;40.10;;;;;;1881136;76;21635;-48
2022/04/09 12:30:51;;;;;;;8.13;2.20;;;20.20;40.10;;;;;;1881481;76;21035;-51
2022/04/09 12:33:18;;;;;;;12.43;2.45;;;20.20;40.10;;;;;;1881485;76;21565;-52
2022/04/09 12:35:46;;;;;;;14.55;3.15;;;20.30;40.10;;;;;;1881065;76;21121;-52
2022/04/09 12:38:30;;;;;;;9.03;2.42;;;20.20;40.00;;;;;;1880988;76;21090;-44
2022/04/09 12:41:03;;;;;;;17.90;2.85;;;20.30;40.40;;;;;;1881250;76;21145;-48
2022/04/09 12:43:35;;;;;;;4.58;1.90;;;20.20;40.20;;;;;;1881136;76;21586;-49
2022/04/09 12:46:13;;;;;;;11.70;2.37;;;20.20;40.10;;;;;;1881222;76;21141;-50
2022/04/09 12:48:50;;;;;;;6.35;2.40;;;20.20;40.80;;;;;;1880219;75;21730;-56
2022/04/09 12:51:19;;;;;;;10.72;2.37;;;20.30;40.20;;;;;;1876674;76;21121;-47
2022/04/09 12:53:55;;;;;;;9.73;2.80;;;20.40;40.20;;;;;;1877453;76;21484;-50